Time;durP1;ratioP1;P1;durP2;ratioP2;P2;SDS_P1;SDS_P2;PMS_P1;PMS_P2;Temp;Humidity;BMP_temperature;BMP_pressure;BME280_temperature;BME280_humidity;BME280_pressure;Samples;Min_cycle;Max_cycle;Signal;HPM_P1;HPM_P2
2022/01/13 00:01:29;;;;;;;71.80;32.00;;;;;;;-0.48;80.42;102075.25;84584;1328;22602;-71
2022/01/13 00:03:37;;;;;;;78.50;35.70;;;;;;;-0.48;80.40;102077.44;84598;1330;22664;-71
2022/01/13 00:05:46;;;;;;;81.80;37.10;;;;;;;-0.49;80.49;102077.06;84572;1330;25477;-69
2022/01/13 00:07:58;;;;;;;83.90;37.40;;;;;;;-0.52;80.32;102077.34;84603;1330;22747;-70
2022/01/13 00:10:12;;;;;;;82.40;35.10;;;;;;;-0.53;80.18;102074.21;84595;1333;22754;-71
2022/01/13 00:12:28;;;;;;;70.90;34.40;;;;;;;-0.56;80.12;102068.62;84613;1329;22707;-78
2022/01/13 00:14:54;;;;;;;66.80;31.80;;;;;;;-0.58;80.57;102061.18;84595;1327;22599;-78
2022/01/13 00:17:23;;;;;;;69.80;32.20;;;;;;;-0.59;80.46;102055.47;84617;1330;22794;-70
2022/01/13 00:19:45;;;;;;;73.00;36.20;;;;;;;-0.59;80.60;102053.10;84593;1330;24251;-70
2022/01/13 00:22:00;;;;;;;69.80;32.80;;;;;;;-0.59;80.59;102050.85;84608;1330;22867;-78
2022/01/13 00:24:13;;;;;;;70.70;34.40;;;;;;;-0.60;80.65;102045.34;84593;1327;22673;-78
2022/01/13 00:26:24;;;;;;;71.90;33.30;;;;;;;-0.61;80.78;102046.33;84609;1329;22607;-71
2022/01/13 00:28:33;;;;;;;68.90;33.20;;;;;;;-0.61;80.57;102055.42;84587;1333;22658;-70
2022/01/13 00:30:42;;;;;;;63.60;32.50;;;;;;;-0.59;80.69;102050.16;84598;1330;22593;-71
2022/01/13 00:32:51;;;;;;;77.70;31.70;;;;;;;-0.60;80.48;102039.01;84613;1330;22631;-70
2022/01/13 00:35:00;;;;;;;69.20;31.70;;;;;;;-0.58;80.78;102040.27;84574;1330;22642;-70
2022/01/13 00:37:09;;;;;;;63.60;29.40;;;;;;;-0.54;80.60;102037.17;84586;1330;24245;-71
2022/01/13 00:39:18;;;;;;;60.70;28.70;;;;;;;-0.52;80.67;102025.73;84547;1331;22629;-71
2022/01/13 00:41:30;;;;;;;83.60;38.90;;;;;;;-0.49;80.79;102016.38;84614;1330;22632;-77
2022/01/13 00:43:42;;;;;;;85.00;37.50;;;;;;;-0.45;80.78;102012.05;84619;1332;22634;-78
2022/01/13 00:45:54;;;;;;;69.60;32.00;;;;;;;-0.44;80.74;102008.14;84656;1330;22583;-77
2022/01/13 00:48:03;;;;;;;63.50;29.50;;;;;;;-0.47;80.54;102003.59;84601;1327;22606;-71
2022/01/13 00:50:18;;;;;;;66.70;29.90;;;;;;;-0.51;80.46;102006.55;84584;1330;22851;-70
2022/01/13 00:52:30;;;;;;;69.20;31.80;;;;;;;-0.54;80.43;102002.70;84595;1330;22884;-79
2022/01/13 00:54:41;;;;;;;63.00;29.00;;;;;;;-0.56;80.33;101990.30;84592;1330;22871;-77
2022/01/13 00:56:51;;;;;;;69.00;32.80;;;;;;;-0.55;80.59;102008.67;84601;1330;22633;-69
2022/01/13 00:59:00;;;;;;;81.90;39.10;;;;;;;-0.54;80.46;102041.42;84594;1330;25453;-71
2022/01/13 01:01:09;;;;;;;74.30;34.30;;;;;;;-0.55;80.70;102051.34;84512;1332;24248;-77
2022/01/13 01:03:21;;;;;;;62.70;29.20;;;;;;;-0.55;80.65;102068.13;84589;1330;22186;-78
2022/01/13 01:05:30;;;;;;;57.80;27.70;;;;;;;-0.54;80.62;102060.78;84599;1330;25468;-79
2022/01/13 01:07:42;;;;;;;51.50;25.20;;;;;;;-0.55;80.60;102034.04;84584;1330;22653;-78
2022/01/13 01:09:51;;;;;;;56.10;27.30;;;;;;;-0.56;80.78;101996.29;84582;1330;24240;-78
2022/01/13 01:11:59;;;;;;;54.00;26.10;;;;;;;-0.56;80.70;101980.67;84632;1327;22635;-77
2022/01/13 01:14:13;;;;;;;53.80;25.00;;;;;;;-0.57;80.40;101976.38;84562;1330;22693;-78
2022/01/13 01:16:22;;;;;;;53.80;24.70;;;;;;;-0.56;80.59;101966.63;84610;1327;22617;-70
2022/01/13 01:18:41;;;;;;;45.80;23.70;;;;;;;-0.54;80.55;101955.38;84613;1328;22636;-70
2022/01/13 01:21:03;;;;;;;45.50;21.10;;;;;;;-0.55;80.76;101953.81;84578;1330;22615;-69
2022/01/13 01:23:17;;;;;;;51.20;23.60;;;;;;;-0.55;80.48;101956.38;84601;1330;24297;-78
2022/01/13 01:27:56;;;;;;;51.40;25.00;;;;;;;-0.54;80.50;101951.13;84595;1330;24409;-69
2022/01/13 01:30:14;;;;;;;50.30;23.90;;;;;;;-0.53;80.67;101953.20;84594;1330;22669;-69
2022/01/13 01:32:24;;;;;;;55.50;26.00;;;;;;;-0.52;80.65;101957.49;84605;1329;22615;-77
2022/01/13 01:37:12;;;;;;;48.40;22.60;;;;;;;-0.57;80.48;101965.40;84431;1333;25372;-77
2022/01/13 01:39:21;;;;;;;50.70;23.40;;;;;;;-0.55;80.45;101965.46;84592;1328;22600;-79
2022/01/13 01:41:30;;;;;;;50.30;25.00;;;;;;;-0.53;80.45;101970.66;84588;1333;22621;-78
2022/01/13 01:43:39;;;;;;;56.50;25.50;;;;;;;-0.51;80.45;101977.93;84589;1330;22602;-77
2022/01/13 01:45:52;;;;;;;82.40;35.30;;;;;;;-0.49;80.67;101994.63;84602;1330;25272;-77
2022/01/13 01:48:03;;;;;;;68.50;30.20;;;;;;;-0.48;80.32;101996.88;84599;1330;23910;-69
2022/01/13 01:50:18;;;;;;;54.40;23.90;;;;;;;-0.50;80.56;101993.05;84587;1329;22891;-71
2022/01/13 01:52:28;;;;;;;58.00;24.90;;;;;;;-0.51;80.55;101979.98;84630;1330;24406;-79
2022/01/13 01:54:36;;;;;;;56.00;25.70;;;;;;;-0.53;80.51;101964.34;84596;1331;22602;-78
2022/01/13 01:56:45;;;;;;;46.80;21.90;;;;;;;-0.54;80.40;101952.84;84602;1329;24404;-78
2022/01/13 01:58:56;;;;;;;62.20;28.10;;;;;;;-0.54;80.16;101949.90;84607;1332;22897;-78
2022/01/13 02:01:08;;;;;;;52.00;25.70;;;;;;;-0.57;80.29;101960.45;84579;1329;22643;-78
2022/01/13 02:03:16;;;;;;;43.50;22.30;;;;;;;-0.57;80.48;101961.98;84589;1330;23794;-69
2022/01/13 02:05:28;;;;;;;55.60;24.50;;;;;;;-0.57;80.62;101974.84;84573;1329;22755;-69
2022/01/13 02:07:37;;;;;;;45.60;23.40;;;;;;;-0.58;80.48;101972.57;84578;1330;23857;-70
2022/01/13 02:09:51;;;;;;;51.10;23.60;;;;;;;-0.61;80.62;101977.77;84535;1331;22639;-70
2022/01/13 02:12:04;;;;;;;53.90;24.10;;;;;;;-0.61;80.56;101972.63;84588;1330;23008;-71
2022/01/13 02:14:31;;;;;;;49.50;23.50;;;;;;;-0.62;80.86;101977.92;84621;1328;22785;-71
2022/01/13 02:16:47;;;;;;;54.20;21.70;;;;;;;-0.66;80.83;101971.95;84618;1330;23909;-71
2022/01/13 02:18:58;;;;;;;50.80;23.70;;;;;;;-0.66;80.77;101964.58;84577;1331;23738;-71
2022/01/13 02:21:07;;;;;;;51.10;22.00;;;;;;;-0.64;80.89;101956.25;84585;1330;22662;-74
2022/01/13 02:23:21;;;;;;;48.70;21.60;;;;;;;-0.60;80.98;101949.52;84611;1328;22597;-79
2022/01/13 02:25:30;;;;;;;52.20;24.70;;;;;;;-0.58;80.90;101951.13;84589;1329;23915;-78
2022/01/13 02:27:42;;;;;;;62.50;26.50;;;;;;;-0.56;80.99;101953.42;84596;1330;22609;-77
2022/01/13 02:29:51;;;;;;;62.90;26.20;;;;;;;-0.54;80.93;101962.95;84613;1331;22690;-77
2022/01/13 02:31:59;;;;;;;55.60;23.90;;;;;;;-0.56;80.99;101959.09;84606;1330;22652;-70
2022/01/13 02:34:11;;;;;;;66.40;26.60;;;;;;;-0.56;81.11;101959.09;84580;1330;22669;-71
2022/01/13 02:36:24;;;;;;;58.20;23.70;;;;;;;-0.55;81.02;101960.66;84500;1332;22764;-71
2022/01/13 02:38:36;;;;;;;70.40;29.50;;;;;;;-0.55;80.89;101966.15;84596;1331;22604;-71
2022/01/13 02:40:45;;;;;;;61.90;25.60;;;;;;;-0.56;81.09;101964.38;84576;1330;22621;-72
2022/01/13 02:42:53;;;;;;;51.60;23.20;;;;;;;-0.56;81.26;101963.89;84600;1330;22623;-69
2022/01/13 02:45:03;;;;;;;58.50;25.80;;;;;;;-0.53;81.04;101967.61;84590;1330;23207;-71
2022/01/13 02:47:33;;;;;;;54.00;24.40;;;;;;;-0.48;81.22;101968.11;84580;1330;22725;-79
2022/01/13 02:49:42;;;;;;;63.60;26.10;;;;;;;-0.46;81.27;101971.23;84582;1330;24184;-77
2022/01/13 02:51:52;;;;;;;51.40;22.40;;;;;;;-0.44;81.22;101967.17;84549;1330;25510;-77
2022/01/13 02:54:01;;;;;;;54.00;24.00;;;;;;;-0.44;81.13;101958.09;84585;1327;22813;-78
2022/01/13 02:56:10;;;;;;;54.60;21.70;;;;;;;-0.47;81.17;101953.02;84619;1329;22729;-77
2022/01/13 02:58:20;;;;;;;58.90;21.70;;;;;;;-0.48;81.08;101937.91;84598;1329;25460;-78
2022/01/13 03:00:29;;;;;;;49.40;20.50;;;;;;;-0.48;81.24;101940.29;84574;1330;22622;-78
2022/01/13 03:02:38;;;;;;;45.30;20.20;;;;;;;-0.48;81.00;101938.63;84403;1330;275660;-70
2022/01/13 03:04:53;;;;;;;51.10;23.40;;;;;;;-0.47;81.11;101926.81;84522;1331;22622;-70
2022/01/13 03:07:05;;;;;;;43.80;18.80;;;;;;;-0.43;81.11;101922.47;84580;1331;22607;-70
2022/01/13 03:09:16;;;;;;;46.00;19.30;;;;;;;-0.41;81.39;101926.47;84582;1329;22878;-68
2022/01/13 03:11:32;;;;;;;47.80;20.30;;;;;;;-0.37;81.58;101921.63;84624;1330;22615;-69
2022/01/13 03:13:40;;;;;;;49.40;20.90;;;;;;;-0.34;81.45;101919.66;84581;1330;22598;-70
2022/01/13 03:15:49;;;;;;;50.20;20.40;;;;;;;-0.35;81.32;101914.86;84580;1333;22755;-70
2022/01/13 03:17:58;;;;;;;52.80;20.60;;;;;;;-0.36;81.17;101908.97;84591;1333;25450;-79
2022/01/13 03:20:13;;;;;;;48.10;19.10;;;;;;;-0.38;81.55;101907.23;84599;1324;23125;-78
2022/01/13 03:22:22;;;;;;;49.40;20.00;;;;;;;-0.38;81.28;101897.09;84601;1331;22604;-70
2022/01/13 03:24:33;;;;;;;44.10;18.70;;;;;;;-0.36;81.63;101888.91;84586;1329;23775;-69
2022/01/13 03:26:44;;;;;;;52.80;20.90;;;;;;;-0.35;81.63;101883.63;84552;1331;22625;-68
2022/01/13 03:29:05;;;;;;;45.50;20.00;;;;;;;-0.34;81.76;101884.70;84526;1333;22606;-70
2022/01/13 03:31:14;;;;;;;50.20;21.80;;;;;;;-0.35;81.82;101890.67;84629;1333;22596;-78
2022/01/13 03:33:23;;;;;;;47.00;22.20;;;;;;;-0.33;81.84;101895.02;84591;1329;23872;-78
2022/01/13 03:35:32;;;;;;;54.50;22.60;;;;;;;-0.32;81.95;101889.55;84574;1330;22740;-78
2022/01/13 03:37:41;;;;;;;46.40;20.30;;;;;;;-0.31;82.11;101885.29;84608;1330;22610;-78
2022/01/13 03:39:49;;;;;;;50.40;20.80;;;;;;;-0.33;82.08;101879.75;84565;1330;23099;-76
2022/01/13 03:42:03;;;;;;;48.20;20.60;;;;;;;-0.34;82.03;101872.71;84568;1331;23021;-78
2022/01/13 03:44:27;;;;;;;47.50;19.40;;;;;;;-0.32;82.03;101868.64;84585;1333;25967;-77
2022/01/13 03:46:37;;;;;;;51.50;21.10;;;;;;;-0.29;82.24;101859.83;84607;1329;25448;-69
2022/01/13 03:48:46;;;;;;;45.10;18.00;;;;;;;-0.28;82.65;101851.80;84500;1331;22599;-70
2022/01/13 03:50:57;;;;;;;34.50;16.90;;;;;;;-0.28;82.54;101837.58;84594;1331;25272;-68
2022/01/13 03:53:58;;;;;;;34.20;16.20;;;;;;;-0.27;82.74;101837.59;84586;1330;25455;-69
2022/01/13 03:57:06;;;;;;;42.90;18.40;;;;;;;-0.28;82.50;101840.98;84594;1327;22878;-73
2022/01/13 04:00:26;;;;;;;38.20;18.70;;;;;;;-0.28;82.74;101838.95;84297;1335;22630;-69
2022/01/13 04:02:35;;;;;;;37.60;15.40;;;;;;;-0.26;82.72;101832.30;84305;1335;22905;-69
2022/01/13 04:04:46;;;;;;;35.30;14.80;;;;;;;-0.24;82.79;101833.56;84301;1335;21987;-69
2022/01/13 04:07:12;;;;;;;33.20;16.10;;;;;;;-0.20;82.70;101829.88;84291;1335;22745;-79
2022/01/13 04:10:13;;;;;;;38.70;15.70;;;;;;;-0.16;82.75;101825.20;84285;1335;24969;-78
2022/01/13 04:12:25;;;;;;;34.70;16.00;;;;;;;-0.11;82.80;101827.75;84309;1335;22653;-69
2022/01/13 04:14:44;;;;;;;38.60;16.20;;;;;;;-0.12;82.87;101823.61;84261;1335;22808;-70
2022/01/13 04:16:53;;;;;;;40.30;16.50;;;;;;;-0.14;82.93;101816.68;84585;1330;25300;-69
2022/01/13 04:19:06;;;;;;;36.50;17.70;;;;;;;-0.14;83.03;101807.79;84584;1333;22612;-70
2022/01/13 04:21:15;;;;;;;39.50;16.20;;;;;;;-0.15;83.20;101796.59;84610;1327;22625;-70
2022/01/13 04:23:27;;;;;;;37.90;17.20;;;;;;;-0.14;83.08;101791.13;84579;1327;22780;-67
2022/01/13 04:25:39;;;;;;;37.30;16.50;;;;;;;-0.12;83.01;101782.11;84506;1331;22593;-69
2022/01/13 04:27:48;;;;;;;35.70;14.10;;;;;;;-0.10;83.16;101778.23;84606;1333;22660;-69
2022/01/13 04:30:22;;;;;;;34.40;15.80;;;;;;;-0.08;83.03;101780.33;84582;1330;24209;-69
2022/01/13 04:32:30;;;;;;;35.80;16.20;;;;;;;-0.06;83.37;101782.10;84603;1330;24412;-70
2022/01/13 04:34:39;;;;;;;36.30;17.10;;;;;;;-0.06;83.41;101784.17;84575;1330;25454;-70
2022/01/13 04:36:48;;;;;;;33.80;18.60;;;;;;;-0.05;83.60;101784.73;84609;1330;24260;-79
2022/01/13 04:39:00;;;;;;;42.90;17.50;;;;;;;-0.03;83.67;101782.71;84593;1329;22868;-79
2022/01/13 04:41:09;;;;;;;34.40;16.10;;;;;;;-0.01;83.46;101778.64;84608;1330;23824;-77
2022/01/13 04:43:20;;;;;;;34.40;17.90;;;;;;;0.00;83.75;101780.92;84588;1327;22753;-79
2022/01/13 04:45:29;;;;;;;36.70;18.70;;;;;;;0.01;83.64;101791.05;84581;1330;22602;-78
2022/01/13 04:47:38;;;;;;;26.90;13.90;;;;;;;0.04;83.73;101794.02;84614;1330;25457;-69
2022/01/13 04:49:47;;;;;;;29.70;15.50;;;;;;;0.07;83.96;101788.48;84609;1324;22691;-69
2022/01/13 04:52:00;;;;;;;28.00;15.80;;;;;;;0.11;84.11;101789.62;84593;1331;24219;-78
2022/01/13 04:54:14;;;;;;;34.60;15.30;;;;;;;0.12;83.82;101791.17;84556;1333;22609;-77
2022/01/13 04:56:29;;;;;;;29.30;14.30;;;;;;;0.12;84.16;101786.38;84567;1328;22637;-76
2022/01/13 04:58:39;;;;;;;29.50;14.40;;;;;;;0.13;83.92;101772.15;84601;1330;22798;-78
2022/01/13 05:00:48;;;;;;;27.60;13.30;;;;;;;0.12;84.13;101755.33;84579;1328;24221;-78
2022/01/13 05:02:56;;;;;;;23.10;12.20;;;;;;;0.13;84.16;101746.95;84595;1330;22606;-70
2022/01/13 05:05:06;;;;;;;22.00;11.50;;;;;;;0.13;84.32;101741.79;84583;1332;22667;-70
2022/01/13 05:07:14;;;;;;;;;;;;;;;0.15;84.15;101737.73;84578;1333;23950;-77
2022/01/13 05:09:22;;;;;;;24.70;12.60;;;;;;;0.16;84.32;101748.05;84586;1333;22642;-78
2022/01/13 05:11:31;;;;;;;22.70;13.60;;;;;;;0.19;84.53;101752.58;84570;1335;22733;-77
2022/01/13 05:13:43;;;;;;;19.50;11.50;;;;;;;0.20;84.49;101759.66;84593;1328;23779;-77
2022/01/13 05:15:54;;;;;;;18.70;11.00;;;;;;;0.20;84.44;101765.50;84584;1330;22647;-78
2022/01/13 05:18:17;;;;;;;20.00;11.70;;;;;;;0.20;84.56;101763.95;84635;1332;22605;-69
2022/01/13 05:20:29;;;;;;;19.20;11.70;;;;;;;0.20;84.66;101767.54;84597;1330;22762;-67
2022/01/13 05:22:39;;;;;;;21.10;10.50;;;;;;;0.21;84.53;101772.05;84630;1327;22624;-78
2022/01/13 05:24:51;;;;;;;15.00;10.10;;;;;;;0.24;84.66;101767.99;84527;1330;22613;-78
2022/01/13 05:26:59;;;;;;;12.10;8.50;;;;;;;0.28;84.68;101771.68;84623;1328;22640;-69
2022/01/13 05:29:17;;;;;;;16.00;9.30;;;;;;;0.29;84.64;101762.10;84594;1330;22620;-69
2022/01/13 05:31:26;;;;;;;16.70;10.30;;;;;;;0.29;84.86;101742.20;84597;1330;22738;-70
2022/01/13 05:33:35;;;;;;;16.70;9.90;;;;;;;0.30;84.83;101750.98;84582;1330;24225;-70
2022/01/13 05:35:47;;;;;;;16.80;9.90;;;;;;;0.31;84.76;101751.02;84591;1330;23818;-70
2022/01/13 05:37:58;;;;;;;17.70;10.50;;;;;;;0.29;84.66;101741.36;84597;1330;22744;-80
2022/01/13 05:40:09;;;;;;;18.20;10.00;;;;;;;0.31;84.80;101732.64;84616;1328;22611;-81
2022/01/13 05:42:19;;;;;;;22.20;10.30;;;;;;;0.31;84.71;101723.73;84585;1333;25478;-79
2022/01/13 05:44:37;;;;;;;15.30;9.50;;;;;;;0.34;84.68;101720.17;84609;1330;22649;-79
2022/01/13 05:46:48;;;;;;;13.90;8.50;;;;;;;0.33;84.97;101722.56;84623;1330;22589;-70
2022/01/13 05:48:57;;;;;;;15.60;9.90;;;;;;;0.33;84.86;101723.08;84544;1326;22724;-70
2022/01/13 05:51:10;;;;;;;13.00;8.70;;;;;;;0.33;84.84;101716.05;84616;1328;22632;-71
2022/01/13 05:53:19;;;;;;;13.70;8.50;;;;;;;0.35;84.83;101710.95;84587;1330;22630;-69
2022/01/13 05:55:27;;;;;;;14.60;8.90;;;;;;;0.34;85.09;101710.41;84624;1328;23987;-69
2022/01/13 05:57:36;;;;;;;14.00;8.60;;;;;;;0.33;84.98;101699.75;84617;1330;23867;-79
2022/01/13 05:59:46;;;;;;;14.70;8.30;;;;;;;0.32;85.20;101696.96;84615;1330;24218;-79
2022/01/13 06:01:57;;;;;;;13.20;9.90;;;;;;;0.32;85.08;101693.20;84624;1329;22918;-78
2022/01/13 06:04:10;;;;;;;12.20;7.40;;;;;;;0.34;85.20;101695.98;84594;1329;22606;-79
2022/01/13 06:06:22;;;;;;;11.20;8.00;;;;;;;0.33;85.37;101691.51;84603;1330;22747;-70
2022/01/13 06:08:31;;;;;;;11.60;8.30;;;;;;;0.36;85.32;101689.00;84614;1330;25073;-69
2022/01/13 06:10:43;;;;;;;13.20;9.20;;;;;;;0.37;85.26;101687.66;84602;1330;22638;-70
2022/01/13 06:12:54;;;;;;;13.60;9.10;;;;;;;0.37;85.28;101687.83;84621;1330;22613;-79
2022/01/13 06:15:01;;;;;;;;;;;;;;;0.37;85.33;101690.23;84618;1330;22980;-77
2022/01/13 06:17:14;;;;;;;10.70;8.00;;;;;;;0.36;85.32;101690.56;84628;1330;23961;-69
2022/01/13 06:19:22;;;;;;;14.20;7.80;;;;;;;0.37;85.21;101684.23;84600;1329;22780;-70
2022/01/13 06:21:32;;;;;;;14.40;9.00;;;;;;;0.38;85.32;101682.02;84624;1329;25165;-69
2022/01/13 06:23:40;;;;;;;10.80;7.60;;;;;;;0.39;85.45;101667.61;84625;1330;23988;-71
2022/01/13 06:25:53;;;;;;;14.10;9.70;;;;;;;0.38;85.78;101660.22;84619;1330;22749;-72
2022/01/13 06:28:02;;;;;;;14.80;9.20;;;;;;;0.39;85.75;101648.39;84595;1332;24995;-69
2022/01/13 06:30:14;;;;;;;15.20;9.50;;;;;;;0.38;85.99;101630.17;84608;1329;25447;-70
2022/01/13 06:32:24;;;;;;;17.80;9.80;;;;;;;0.38;85.80;101616.61;84626;1330;22753;-70
2022/01/13 06:34:32;;;;;;;15.50;9.00;;;;;;;0.38;85.80;101613.01;84615;1329;22933;-70
2022/01/13 06:36:42;;;;;;;13.30;8.10;;;;;;;0.37;85.57;101603.21;84630;1330;23913;-70
2022/01/13 06:38:51;;;;;;;11.50;8.30;;;;;;;0.39;85.82;101605.66;84558;1334;22891;-71
2022/01/13 06:41:01;;;;;;;12.40;8.60;;;;;;;0.40;85.91;101596.40;84618;1329;24004;-69
2022/01/13 06:43:11;;;;;;;9.90;7.70;;;;;;;0.39;85.85;101591.08;84610;1329;23947;-69
2022/01/13 06:45:20;;;;;;;15.80;8.70;;;;;;;0.40;86.05;101596.24;84576;1333;24228;-78
2022/01/13 06:47:29;;;;;;;13.00;8.40;;;;;;;0.40;86.05;101596.23;84614;1329;25403;-69
2022/01/13 06:49:41;;;;;;;14.70;9.40;;;;;;;0.41;85.99;101608.80;84596;1327;22752;-70
2022/01/13 06:51:53;;;;;;;12.60;8.50;;;;;;;0.42;85.98;101604.87;84626;1330;22642;-70
2022/01/13 06:54:02;;;;;;;12.80;8.50;;;;;;;0.45;86.15;101611.63;84604;1331;25250;-79
2022/01/13 06:56:17;;;;;;;13.70;8.70;;;;;;;0.47;86.25;101616.83;84638;1324;23060;-77
2022/01/13 06:58:26;;;;;;;11.70;8.90;;;;;;;0.48;86.16;101628.18;84611;1329;22593;-69
2022/01/13 07:00:39;;;;;;;15.00;9.60;;;;;;;0.51;86.00;101650.41;84595;1327;22786;-69
2022/01/13 07:02:47;;;;;;;14.10;9.60;;;;;;;0.52;86.09;101648.70;84615;1329;24136;-71
2022/01/13 07:04:59;;;;;;;16.60;9.20;;;;;;;0.52;86.03;101629.98;84609;1329;22617;-80
2022/01/13 07:07:09;;;;;;;14.00;9.00;;;;;;;0.51;85.91;101637.20;84594;1330;22606;-78
2022/01/13 07:09:21;;;;;;;13.00;9.20;;;;;;;0.53;86.01;101643.56;84576;1332;22620;-78
2022/01/13 07:11:30;;;;;;;12.60;9.50;;;;;;;0.54;86.17;101646.34;84569;1333;22753;-78
2022/01/13 07:13:42;;;;;;;11.60;7.90;;;;;;;0.55;85.99;101645.00;84610;1329;24036;-77
2022/01/13 07:15:55;;;;;;;13.30;9.00;;;;;;;0.57;86.16;101649.86;84627;1333;22814;-79
2022/01/13 07:18:04;;;;;;;13.00;9.20;;;;;;;0.60;86.38;101642.20;84614;1329;22597;-76
2022/01/13 07:20:14;;;;;;;14.40;9.10;;;;;;;0.58;86.21;101631.84;84605;1327;22887;-75
2022/01/13 07:22:23;;;;;;;15.00;9.60;;;;;;;0.56;86.06;101634.88;84629;1330;22891;-70
2022/01/13 07:24:32;;;;;;;14.40;10.10;;;;;;;0.56;86.23;101634.38;84600;1329;22721;-70
2022/01/13 07:26:41;;;;;;;12.70;8.70;;;;;;;0.57;86.27;101630.27;84610;1330;22729;-71
2022/01/13 07:28:50;;;;;;;14.30;9.70;;;;;;;0.59;86.35;101629.80;84574;1329;23432;-76
2022/01/13 07:31:00;;;;;;;14.90;9.50;;;;;;;0.62;86.55;101627.30;84575;1329;22669;-78
2022/01/13 07:33:11;;;;;;;13.90;10.80;;;;;;;0.64;86.33;101623.03;84619;1329;24171;-70
2022/01/13 07:35:22;;;;;;;17.00;10.80;;;;;;;0.65;86.36;101629.62;84595;1329;24287;-70
2022/01/13 07:37:31;;;;;;;16.40;11.00;;;;;;;0.68;86.51;101633.60;84587;1322;22789;-70
2022/01/13 07:39:40;;;;;;;15.70;10.90;;;;;;;0.68;86.41;101643.23;84597;1330;25278;-69
2022/01/13 07:41:51;;;;;;;16.00;11.80;;;;;;;0.67;86.32;101639.27;84605;1330;22647;-76
2022/01/13 07:44:03;;;;;;;18.70;12.30;;;;;;;0.68;86.31;101641.16;84595;1333;22630;-76
2022/01/13 07:46:12;;;;;;;18.20;11.30;;;;;;;0.69;86.27;101653.40;84624;1329;23982;-76
2022/01/13 07:48:24;;;;;;;20.40;12.60;;;;;;;0.71;86.29;101670.45;84582;1329;22639;-76
2022/01/13 07:50:34;;;;;;;17.60;11.20;;;;;;;0.74;86.39;101662.80;84598;1330;22605;-77
2022/01/13 07:52:46;;;;;;;17.90;11.00;;;;;;;0.76;86.33;101664.90;84635;1323;22601;-68
2022/01/13 07:54:54;;;;;;;18.30;11.90;;;;;;;0.77;86.47;101661.30;84616;1329;22691;-70
2022/01/13 07:57:04;;;;;;;20.70;12.70;;;;;;;0.78;86.45;101659.63;84618;1330;22617;-69
2022/01/13 07:59:13;;;;;;;21.90;12.00;;;;;;;0.78;86.39;101653.27;84543;1333;25281;-70
2022/01/13 08:01:24;;;;;;;17.90;11.70;;;;;;;0.77;86.54;101644.98;84627;1329;22591;-78
2022/01/13 08:03:36;;;;;;;20.80;12.30;;;;;;;0.77;86.55;101641.04;84610;1331;22602;-77
2022/01/13 08:05:45;;;;;;;18.10;12.00;;;;;;;0.79;86.43;101643.67;84602;1329;24363;-78
2022/01/13 08:07:54;;;;;;;21.00;12.40;;;;;;;0.82;86.53;101647.31;84614;1330;24265;-71
2022/01/13 08:10:03;;;;;;;20.20;12.90;;;;;;;0.85;86.53;101654.10;84591;1330;22660;-71
2022/01/13 08:12:12;;;;;;;24.00;13.50;;;;;;;0.87;86.54;101659.80;84630;1329;22779;-71
2022/01/13 08:14:25;;;;;;;21.00;13.30;;;;;;;0.89;86.62;101656.08;84614;1330;23840;-70
2022/01/13 08:16:41;;;;;;;21.80;12.80;;;;;;;0.93;86.79;101653.76;84581;1330;22650;-70
2022/01/13 08:21:19;;;;;;;27.70;14.00;;;;;;;0.97;86.69;101644.91;84626;1330;22739;-76
2022/01/13 08:23:28;;;;;;;24.30;15.20;;;;;;;0.99;86.64;101641.00;84624;1330;22619;-78
2022/01/13 08:25:40;;;;;;;23.80;13.00;;;;;;;1.01;86.64;101641.39;84608;1329;22701;-78
2022/01/13 08:27:53;;;;;;;21.70;13.20;;;;;;;1.04;86.59;101642.15;84634;1330;22769;-69
2022/01/13 08:30:02;;;;;;;20.70;12.60;;;;;;;1.08;86.58;101641.52;84598;1331;25435;-70
2022/01/13 08:32:13;;;;;;;19.40;13.20;;;;;;;1.08;86.70;101648.41;84605;1333;22599;-71
2022/01/13 08:34:22;;;;;;;22.50;14.70;;;;;;;1.11;86.82;101655.52;84592;1330;22664;-70
2022/01/13 08:36:34;;;;;;;23.20;14.60;;;;;;;1.12;86.91;101656.23;84612;1330;25977;-78
2022/01/13 08:38:43;;;;;;;27.80;15.80;;;;;;;1.12;86.83;101665.84;84558;1333;22616;-78
2022/01/13 08:40:57;;;;;;;26.60;15.70;;;;;;;1.13;86.63;101670.67;84611;1327;22719;-79
2022/01/13 08:43:09;;;;;;;24.40;14.20;;;;;;;1.13;86.71;101668.29;84610;1330;22739;-78
2022/01/13 08:45:18;;;;;;;21.60;13.00;;;;;;;1.14;86.68;101672.79;84643;1329;22629;-79
2022/01/13 08:47:26;;;;;;;23.20;13.70;;;;;;;1.17;86.75;101664.05;84586;1330;22662;-71
2022/01/13 08:49:36;;;;;;;24.10;13.60;;;;;;;1.21;86.75;101660.20;84597;1330;25272;-68
2022/01/13 08:51:45;;;;;;;23.70;14.60;;;;;;;1.22;86.78;101651.95;84638;1330;25415;-77
2022/01/13 08:53:56;;;;;;;23.10;14.00;;;;;;;1.24;86.87;101643.94;84614;1330;22605;-78
2022/01/13 08:56:08;;;;;;;25.40;14.10;;;;;;;1.24;86.88;101637.06;84611;1330;24235;-70
2022/01/13 08:58:20;;;;;;;23.20;14.00;;;;;;;1.24;86.85;101628.65;84619;1330;22869;-77
2022/01/13 09:00:29;;;;;;;20.10;13.40;;;;;;;1.27;86.84;101620.27;84569;1330;23894;-78
2022/01/13 09:02:42;;;;;;;23.40;13.60;;;;;;;1.29;86.78;101616.71;84617;1330;24297;-79
2022/01/13 09:04:53;;;;;;;20.30;13.50;;;;;;;1.32;86.73;101616.40;84588;1330;22840;-79
2022/01/13 09:07:02;;;;;;;20.40;13.10;;;;;;;1.36;86.94;101618.90;84642;1327;22773;-77
2022/01/13 09:09:14;;;;;;;21.20;13.30;;;;;;;1.36;86.92;101619.06;84580;1331;22795;-78
2022/01/13 09:11:24;;;;;;;21.30;14.20;;;;;;;1.37;86.78;101618.58;84613;1330;22864;-69
2022/01/13 09:13:37;;;;;;;24.00;15.00;;;;;;;1.35;86.73;101625.92;84603;1330;22623;-78
2022/01/13 09:15:51;;;;;;;22.20;14.60;;;;;;;1.32;86.85;101628.95;84600;1330;23835;-79
2022/01/13 09:18:08;;;;;;;21.30;13.60;;;;;;;1.33;86.85;101624.34;84551;1331;22619;-70
2022/01/13 09:20:21;;;;;;;20.80;13.00;;;;;;;1.35;86.88;101626.80;84598;1328;24262;-69
2022/01/13 09:22:30;;;;;;;19.50;12.50;;;;;;;1.37;86.84;101624.08;84547;1331;25451;-70
2022/01/13 09:24:39;;;;;;;23.40;14.00;;;;;;;1.43;86.87;101632.46;84576;1330;22584;-70
2022/01/13 09:26:49;;;;;;;18.80;13.30;;;;;;;1.45;86.75;101626.30;84619;1330;22773;-78
2022/01/13 09:28:57;;;;;;;26.20;14.90;;;;;;;1.47;86.95;101622.38;84621;1328;22556;-78
2022/01/13 09:31:07;;;;;;;22.50;14.60;;;;;;;1.49;87.06;101626.05;84562;1331;22751;-72
2022/01/13 09:33:16;;;;;;;24.40;15.30;;;;;;;1.48;86.84;101628.92;84583;1330;22616;-69
2022/01/13 09:35:25;;;;;;;25.00;15.00;;;;;;;1.47;86.97;101626.15;84590;1330;22601;-68
2022/01/13 09:37:33;;;;;;;25.40;13.80;;;;;;;1.47;86.88;101613.61;84477;1317;22753;-68
2022/01/13 09:39:49;;;;;;;26.70;15.20;;;;;;;1.50;87.14;101601.64;84511;1332;22701;-69
2022/01/13 09:41:58;;;;;;;22.40;14.00;;;;;;;1.53;87.11;101590.02;84557;1328;22631;-78
2022/01/13 09:44:08;;;;;;;20.30;12.90;;;;;;;1.57;87.09;101597.79;84589;1330;22579;-78
2022/01/13 09:46:16;;;;;;;;;;;;;;;1.61;87.10;101587.38;84643;1330;23970;-76
2022/01/13 09:48:26;;;;;;;21.70;13.40;;;;;;;1.61;87.15;101583.42;84589;1330;25290;-79
2022/01/13 09:50:35;;;;;;;24.00;14.10;;;;;;;1.63;87.15;101579.88;84626;1328;22592;-77
2022/01/13 09:52:44;;;;;;;25.00;14.30;;;;;;;1.64;87.13;101575.41;84599;1330;22848;-70
2022/01/13 09:54:53;;;;;;;22.30;13.60;;;;;;;1.65;87.28;101574.56;84611;1330;22910;-69
2022/01/13 09:57:02;;;;;;;19.20;12.10;;;;;;;1.65;87.17;101565.96;84600;1330;22639;-78
2022/01/13 09:59:11;;;;;;;22.90;13.00;;;;;;;1.65;86.95;101565.96;84588;1331;22850;-77
2022/01/13 10:01:20;;;;;;;23.20;13.50;;;;;;;1.68;86.98;101561.20;84572;1334;22776;-68
2022/01/13 10:03:33;;;;;;;21.10;13.90;;;;;;;1.70;87.01;101560.20;84576;1330;24129;-69
2022/01/13 10:05:51;;;;;;;21.70;14.00;;;;;;;1.70;87.03;101557.96;84597;1330;22599;-71
2022/01/13 10:07:59;;;;;;;22.80;13.90;;;;;;;1.72;87.08;101562.29;84645;1329;22597;-70
2022/01/13 10:10:15;;;;;;;23.60;14.60;;;;;;;1.70;86.95;101560.03;84614;1333;23979;-70
2022/01/13 10:12:36;;;;;;;21.70;13.30;;;;;;;1.69;87.07;101555.38;84591;1331;22993;-70
2022/01/13 10:17:23;;;;;;;18.50;12.00;;;;;;;1.69;86.97;101549.53;84615;1330;22650;-70